createdAt,value
2018-10-19T00:00:25.196Z,1.37
2018-10-19T00:02:55.559Z,1.33
2018-10-19T00:05:25.288Z,1.20
2018-10-19T00:07:54.941Z,1.73
2018-10-19T00:10:24.587Z,1.50
2018-10-19T00:12:54.346Z,1.53
2018-10-19T00:15:23.968Z,1.43
2018-10-19T00:17:53.611Z,1.60
2018-10-19T00:20:23.336Z,1.03
2018-10-19T00:22:52.984Z,1.40
2018-10-19T00:25:22.640Z,1.53
2018-10-19T00:27:52.335Z,1.30
2018-10-19T00:30:22.004Z,1.50
2018-10-19T00:32:51.649Z,1.57
2018-10-19T00:35:21.428Z,1.20
2018-10-19T00:37:51.089Z,1.40
2018-10-19T00:40:20.741Z,1.63
2018-10-19T00:42:50.481Z,1.20
2018-10-19T00:45:24.457Z,1.13
2018-10-19T00:47:54.159Z,1.60
2018-10-19T00:50:23.800Z,1.67
2018-10-19T00:52:53.451Z,1.40
2018-10-19T00:55:23.220Z,1.47
2018-10-19T00:57:52.868Z,1.60
2018-10-19T01:00:22.525Z,1.63
2018-10-19T01:02:52.251Z,1.50
2018-10-19T01:05:22.160Z,1.40
2018-10-19T01:07:51.832Z,1.20
2018-10-19T01:10:23.515Z,1.40
2018-10-19T01:12:56.407Z,1.60
2018-10-19T01:15:27.429Z,1.40
2018-10-19T01:17:57.485Z,1.30
2018-10-19T01:20:27.216Z,1.20
2018-10-19T01:22:56.969Z,1.27
2018-10-19T01:25:26.608Z,1.30
2018-10-19T01:27:56.332Z,1.33
2018-10-19T01:30:25.996Z,1.47
2018-10-19T01:32:55.658Z,1.40
2018-10-19T01:35:25.379Z,1.50
2018-10-19T01:37:55.028Z,1.40
2018-10-19T01:40:24.668Z,1.30
2018-10-19T01:42:54.375Z,1.17
2018-10-19T01:45:24.041Z,1.30
2018-10-19T01:47:53.692Z,1.37
2018-10-19T01:50:23.372Z,1.50
2018-10-19T01:52:53.076Z,1.20
2018-10-19T01:55:22.720Z,1.90
2018-10-19T01:57:52.460Z,1.60
2018-10-19T02:00:22.168Z,1.60
2018-10-19T02:02:52.286Z,1.50
2018-10-19T02:05:21.976Z,1.50
2018-10-19T02:07:51.644Z,1.60
2018-10-19T02:10:21.328Z,1.80
2018-10-19T02:12:50.988Z,1.53
2018-10-19T02:15:20.698Z,1.97
2018-10-19T02:17:50.341Z,1.50
2018-10-19T02:20:20.024Z,1.93
2018-10-19T02:22:49.696Z,1.80
2018-10-19T02:25:19.389Z,2.00
2018-10-19T02:27:49.136Z,1.70
2018-10-19T02:30:18.923Z,1.57
2018-10-19T02:32:48.577Z,2.20
2018-10-19T02:35:18.341Z,1.53
2018-10-19T02:37:48.120Z,1.77
2018-10-19T02:40:17.828Z,1.80
2018-10-19T02:42:47.469Z,1.87
2018-10-19T02:45:17.256Z,1.70
2018-10-19T02:47:46.828Z,1.40
2018-10-19T02:50:16.537Z,1.90
2018-10-19T02:52:46.224Z,1.50
2018-10-19T02:55:15.909Z,1.90
2018-10-19T02:57:45.595Z,1.63
2018-10-19T03:00:15.276Z,1.90
2018-10-19T03:02:44.977Z,1.70
2018-10-19T03:05:14.756Z,1.60
2018-10-19T03:07:44.336Z,1.77
2018-10-19T03:10:14.030Z,1.87
2018-10-19T03:12:43.692Z,1.77
2018-10-19T03:15:13.440Z,2.10
2018-10-19T03:17:43.360Z,1.80
2018-10-19T03:20:13.041Z,1.63
2018-10-19T03:22:42.723Z,1.67
2018-10-19T03:25:12.417Z,1.47
2018-10-19T03:27:42.110Z,1.57
2018-10-19T03:30:11.822Z,1.90
2018-10-19T03:32:41.485Z,1.97
2018-10-19T03:35:11.186Z,1.90
2018-10-19T03:37:40.843Z,1.77
2018-10-19T03:40:10.529Z,1.90
2018-10-19T03:42:40.192Z,1.90
2018-10-19T03:45:09.952Z,1.97
2018-10-19T03:47:39.620Z,1.80
2018-10-19T03:50:09.362Z,2.10
2018-10-19T03:52:39.089Z,2.00
2018-10-19T03:55:08.840Z,1.60
2018-10-19T03:57:38.516Z,1.70
2018-10-19T04:00:08.248Z,2.00
2018-10-19T04:02:37.896Z,2.43
2018-10-19T04:05:07.696Z,2.33
2018-10-19T04:07:37.331Z,2.10
2018-10-19T04:10:07.629Z,1.70
2018-10-19T04:12:37.294Z,2.23
2018-10-19T04:15:08.045Z,1.87
2018-10-19T04:17:37.750Z,2.00
2018-10-19T04:20:07.539Z,2.27
2018-10-19T04:22:37.201Z,1.97
2018-10-19T04:25:06.996Z,2.00
2018-10-19T04:27:36.751Z,1.90
2018-10-19T04:30:07.456Z,1.90
2018-10-19T04:32:37.221Z,2.27
2018-10-19T04:35:07.193Z,2.10
2018-10-19T04:37:36.845Z,2.17
2018-10-19T04:40:11.232Z,2.17
2018-10-19T04:42:40.892Z,1.87
2018-10-19T04:45:10.650Z,2.57
2018-10-19T04:47:40.324Z,2.30
2018-10-19T04:50:10.295Z,2.40
2018-10-19T04:52:39.977Z,2.60
2018-10-19T04:55:12.992Z,2.70
2018-10-19T04:57:42.660Z,2.57
2018-10-19T05:00:12.498Z,2.67
2018-10-19T05:02:42.228Z,2.50
2018-10-19T05:05:12.038Z,2.23
2018-10-19T05:07:41.666Z,2.67
2018-10-19T05:10:11.694Z,2.00
2018-10-19T05:12:41.392Z,2.30
2018-10-19T05:15:12.136Z,2.70
2018-10-19T05:17:41.816Z,2.50
2018-10-19T05:20:12.713Z,2.70
2018-10-19T05:22:42.311Z,2.53
2018-10-19T05:25:13.046Z,2.37
2018-10-19T05:27:42.726Z,2.43
2018-10-19T05:30:13.393Z,2.50
2018-10-19T05:32:43.514Z,2.40
2018-10-19T05:35:13.271Z,2.73
2018-10-19T05:37:42.904Z,2.63
2018-10-19T05:40:12.644Z,2.33
2018-10-19T05:42:42.294Z,2.10
2018-10-19T05:45:13.198Z,2.07
2018-10-19T05:47:42.861Z,2.40
2018-10-19T05:50:13.079Z,2.47
2018-10-19T05:52:42.747Z,2.43
2018-10-19T05:55:12.420Z,2.63
2018-10-19T05:57:42.072Z,2.80
2018-10-19T06:00:12.639Z,2.20
2018-10-19T06:02:42.378Z,2.40
2018-10-19T06:05:12.077Z,2.20
2018-10-19T06:07:41.727Z,2.00
2018-10-19T06:10:11.472Z,2.03
2018-10-19T06:12:41.116Z,2.10
2018-10-19T06:15:10.840Z,2.00
2018-10-19T06:17:40.630Z,2.07
2018-10-19T06:20:10.407Z,1.97
2018-10-19T06:22:40.006Z,2.60
2018-10-19T06:25:09.697Z,2.60
2018-10-19T06:27:39.361Z,2.20
2018-10-19T06:30:09.288Z,2.10
2018-10-19T06:32:39.271Z,2.10
2018-10-19T06:35:09.080Z,2.27
2018-10-19T06:37:38.680Z,2.57
2018-10-19T06:40:08.398Z,2.53
2018-10-19T06:42:38.056Z,2.47
2018-10-19T06:45:08.066Z,2.80
2018-10-19T06:47:37.723Z,2.60
2018-10-19T06:50:09.718Z,2.33
2018-10-19T06:52:39.744Z,2.57
2018-10-19T06:55:10.968Z,2.97
2018-10-19T06:57:40.619Z,3.20
2018-10-19T07:00:10.344Z,2.60
2018-10-19T07:02:39.978Z,2.80
2018-10-19T07:05:09.730Z,4.87
2018-10-19T07:07:39.416Z,5.33
2018-10-19T07:10:10.068Z,5.33
2018-10-19T07:12:40.327Z,4.73
2018-10-19T07:15:10.825Z,4.33
2018-10-19T07:17:40.502Z,2.83
2018-10-19T07:20:11.466Z,2.70
2018-10-19T07:22:41.165Z,3.33
2018-10-19T07:25:10.842Z,5.00
2018-10-19T07:27:40.492Z,4.93
2018-10-19T07:30:10.313Z,3.60
2018-10-19T07:32:39.960Z,3.30
2018-10-19T07:35:09.710Z,2.90
2018-10-19T07:37:39.349Z,3.97
2018-10-19T07:40:09.020Z,3.53
2018-10-19T07:42:38.662Z,3.20
2018-10-19T07:45:08.373Z,3.50
2018-10-19T07:47:38.122Z,3.00
2018-10-19T07:50:08.552Z,3.07
2018-10-19T07:52:39.108Z,3.10
2018-10-19T07:55:10.080Z,3.37
2018-10-19T07:57:39.754Z,3.20
2018-10-19T08:00:10.579Z,3.30
2018-10-19T08:02:40.288Z,3.30
2018-10-19T08:05:10.610Z,2.93
2018-10-19T08:07:40.308Z,3.30
2018-10-19T08:10:10.781Z,3.00
2018-10-19T08:12:40.547Z,3.33
2018-10-19T08:15:10.535Z,2.93
2018-10-19T08:17:40.504Z,3.30
2018-10-19T08:20:10.713Z,2.90
2018-10-19T08:22:40.560Z,3.00
2018-10-19T08:25:10.276Z,3.10
2018-10-19T08:27:39.958Z,3.23
2018-10-19T08:30:09.717Z,2.60
2018-10-19T08:32:39.405Z,2.63
2018-10-19T08:35:09.212Z,3.70
2018-10-19T08:37:38.885Z,3.80
2018-10-19T08:40:08.609Z,3.43
2018-10-19T08:42:38.280Z,3.13
2018-10-19T08:45:08.289Z,2.50
2018-10-19T08:47:38.059Z,2.43
2018-10-19T08:50:08.314Z,2.10
2018-10-19T08:52:37.988Z,2.43
2018-10-19T08:55:07.742Z,2.30
2018-10-19T08:57:37.452Z,2.57
2018-10-19T09:00:09.321Z,2.03
2018-10-19T09:02:38.977Z,1.90
2018-10-19T09:05:08.800Z,2.83
2018-10-19T09:07:38.696Z,2.83
2018-10-19T09:10:08.848Z,2.30
2018-10-19T09:12:38.831Z,2.63
2018-10-19T09:15:08.576Z,2.37
2018-10-19T09:17:38.215Z,2.30
2018-10-19T09:20:08.114Z,2.37
2018-10-19T09:22:37.776Z,2.37
2018-10-19T09:25:07.580Z,2.30
2018-10-19T09:27:37.240Z,1.97
2018-10-19T09:30:07.760Z,2.03
2018-10-19T09:32:37.416Z,2.20
2018-10-19T09:35:07.221Z,2.03
2018-10-19T09:37:36.890Z,2.17
2018-10-19T09:40:06.833Z,1.77
2018-10-19T09:42:36.517Z,2.03
2018-10-19T09:45:07.282Z,2.00
2018-10-19T09:47:37.075Z,2.10
2018-10-19T09:50:07.540Z,2.20
2018-10-19T09:52:37.231Z,1.77
2018-10-19T09:55:08.337Z,2.13
2018-10-19T09:57:38.172Z,2.00
2018-10-19T10:00:15.468Z,2.23
2018-10-19T10:02:45.132Z,2.23
2018-10-19T10:05:14.893Z,2.00
2018-10-19T10:07:44.546Z,2.13
2018-10-19T10:10:14.232Z,2.00
2018-10-19T10:12:43.896Z,2.17
2018-10-19T10:15:13.742Z,1.80
2018-10-19T10:17:43.276Z,2.97
2018-10-19T10:20:12.952Z,2.20
2018-10-19T10:22:42.626Z,1.70
2018-10-19T10:25:12.356Z,2.30
2018-10-19T10:27:42.091Z,2.30
2018-10-19T10:30:12.598Z,1.97
2018-10-19T10:32:42.289Z,2.40
2018-10-19T10:35:12.105Z,2.50
2018-10-19T10:37:41.788Z,2.27
2018-10-19T10:40:11.459Z,2.43
2018-10-19T10:42:41.160Z,1.60
2018-10-19T10:45:10.836Z,2.20
2018-10-19T10:47:40.669Z,2.30
2018-10-19T10:50:10.392Z,2.57
2018-10-19T10:52:40.097Z,2.07
2018-10-19T10:55:09.827Z,2.70
2018-10-19T10:57:39.832Z,2.70
2018-10-19T11:00:09.557Z,3.03
2018-10-19T11:02:39.248Z,2.90
2018-10-19T11:05:08.936Z,2.17
2018-10-19T11:07:38.718Z,2.60
2018-10-19T11:10:09.250Z,3.47
2018-10-19T11:12:38.942Z,2.80
2018-10-19T11:15:09.324Z,2.73
2018-10-19T11:17:39.048Z,2.07
2018-10-19T11:20:08.868Z,2.27
2018-10-19T11:22:38.548Z,2.00
2018-10-19T11:25:08.443Z,1.70
2018-10-19T11:27:38.189Z,2.40
2018-10-19T11:30:08.976Z,3.13
2018-10-19T11:32:38.680Z,4.20
2018-10-19T11:35:08.685Z,4.30
2018-10-19T11:37:38.404Z,3.33
2018-10-19T11:40:29.952Z,4.10
2018-10-19T11:42:59.661Z,3.70
2018-10-19T11:45:30.785Z,3.77
2018-10-19T11:48:00.541Z,4.33
2018-10-19T11:50:30.314Z,3.43
2018-10-19T11:53:00.017Z,2.70
2018-10-19T11:55:29.733Z,2.37
2018-10-19T11:57:59.441Z,2.30
2018-10-19T12:00:29.152Z,2.60
2018-10-19T12:02:58.873Z,2.13
2018-10-19T12:05:28.563Z,3.23
2018-10-19T12:07:58.269Z,3.27
2018-10-19T12:10:27.948Z,3.60
2018-10-19T12:12:57.690Z,3.07
2018-10-19T12:15:27.327Z,3.40
2018-10-19T12:17:57.021Z,3.47
2018-10-19T12:20:26.671Z,2.50
2018-10-19T12:22:56.357Z,3.23
2018-10-19T12:25:26.013Z,2.80
2018-10-19T12:27:55.684Z,3.03
2018-10-19T12:30:25.399Z,2.80
2018-10-19T12:32:55.111Z,2.50
2018-10-19T12:35:24.863Z,3.00
2018-10-19T12:37:54.561Z,3.17
2018-10-19T12:40:24.234Z,2.80
2018-10-19T12:42:53.991Z,2.57
2018-10-19T12:46:39.428Z,2.37
2018-10-19T12:49:09.686Z,2.83
2018-10-19T12:51:39.576Z,2.23
2018-10-19T12:54:09.696Z,2.73
2018-10-19T12:56:39.412Z,2.40
2018-10-19T12:59:09.173Z,3.27
2018-10-19T13:01:38.940Z,3.13
2018-10-19T13:04:08.625Z,3.00
2018-10-19T13:06:38.361Z,2.80
2018-10-19T13:09:11.475Z,3.17
2018-10-19T13:11:41.124Z,3.20
2018-10-19T13:14:11.097Z,3.50
2018-10-19T13:16:40.766Z,3.30
2018-10-19T13:19:10.526Z,2.97
2018-10-19T13:21:40.436Z,3.10
2018-10-19T13:24:10.173Z,3.30
2018-10-19T13:26:39.859Z,2.93
2018-10-19T13:29:09.568Z,3.07
2018-10-19T13:31:39.245Z,2.70
2018-10-19T13:34:08.995Z,3.03
2018-10-19T13:36:38.638Z,2.67
2018-10-19T13:39:10.314Z,3.27
2018-10-19T13:41:40.451Z,2.70
2018-10-19T13:44:10.448Z,3.03
2018-10-19T13:46:40.135Z,2.63
2018-10-19T13:49:09.819Z,2.47
2018-10-19T13:51:39.688Z,2.83
2018-10-19T13:54:09.379Z,2.20
2018-10-19T13:56:39.282Z,2.50
2018-10-19T13:59:09.021Z,2.03
2018-10-19T14:01:38.668Z,2.43
2018-10-19T14:04:08.416Z,2.40
2018-10-19T14:06:38.101Z,2.03
2018-10-19T14:09:09.430Z,2.90
2018-10-19T14:11:39.833Z,2.83
2018-10-19T14:14:09.564Z,2.10
2018-10-19T14:16:39.306Z,2.00
2018-10-19T14:19:09.013Z,2.20
2018-10-19T14:21:38.778Z,1.97
2018-10-19T14:24:08.469Z,1.73
2018-10-19T14:26:38.241Z,1.60
2018-10-19T14:29:07.939Z,2.17
2018-10-19T14:31:37.613Z,1.57
2018-10-19T14:34:07.734Z,1.90
2018-10-19T14:36:37.427Z,1.90
2018-10-19T14:39:07.751Z,1.77
2018-10-19T14:41:37.652Z,2.10
2018-10-19T14:44:07.315Z,2.27
2018-10-19T14:46:36.997Z,2.20
2018-10-19T14:49:06.744Z,1.60
2018-10-19T14:51:36.432Z,1.90
2018-10-19T14:54:06.234Z,1.83
2018-10-19T14:56:35.902Z,2.00
2018-10-19T14:59:06.282Z,2.27
2018-10-19T15:01:35.942Z,1.80
2018-10-19T15:04:07.210Z,1.77
2018-10-19T15:06:37.267Z,1.67
2018-10-19T15:09:10.057Z,1.70
2018-10-19T15:11:40.364Z,1.33
2018-10-19T15:14:10.053Z,2.87
2018-10-19T15:16:40.123Z,1.90
2018-10-19T15:19:09.808Z,1.57
2018-10-19T15:21:39.551Z,1.57
2018-10-19T15:24:09.273Z,2.00
2018-10-19T15:26:38.953Z,1.83
2018-10-19T15:29:08.802Z,1.60
2018-10-19T15:31:38.453Z,1.87
2018-10-19T15:34:08.208Z,1.90
2018-10-19T15:36:37.956Z,2.10
2018-10-19T15:39:10.735Z,1.60
2018-10-19T15:41:40.875Z,1.50
2018-10-19T15:44:10.826Z,1.60
2018-10-19T15:46:40.620Z,1.20
2018-10-19T15:49:10.292Z,1.40
2018-10-19T15:51:39.958Z,1.73
2018-10-19T15:54:09.745Z,1.40
2018-10-19T15:56:39.419Z,2.17
2018-10-19T15:59:09.076Z,1.97
2018-10-19T16:01:38.752Z,1.47
2018-10-19T16:04:08.521Z,1.70
2018-10-19T16:06:38.222Z,1.40
2018-10-19T16:09:11.345Z,1.50
2018-10-19T16:11:40.915Z,1.57
2018-10-19T16:14:10.613Z,1.60
2018-10-19T16:16:40.356Z,1.60
2018-10-19T16:19:10.210Z,1.40
2018-10-19T16:21:39.889Z,1.60
2018-10-19T16:24:09.773Z,1.70
2018-10-19T16:26:39.449Z,1.70
2018-10-19T16:29:09.385Z,2.17
2018-10-19T16:31:39.197Z,1.70
2018-10-19T16:34:08.891Z,1.70
2018-10-19T16:36:38.592Z,1.50
2018-10-19T16:39:09.428Z,1.67
2018-10-19T16:41:39.221Z,2.50
2018-10-19T16:44:08.888Z,2.30
2018-10-19T16:46:38.572Z,1.77
2018-10-19T16:49:08.298Z,2.30
2018-10-19T16:51:38.028Z,2.10
2018-10-19T16:54:07.914Z,5.33
2018-10-19T16:56:37.520Z,7.83
2018-10-19T16:59:07.220Z,3.20
2018-10-19T17:01:36.917Z,4.10
2018-10-19T17:04:06.995Z,3.63
2018-10-19T17:06:36.654Z,2.33
2018-10-19T17:09:11.290Z,2.40
2018-10-19T17:11:41.271Z,1.90
2018-10-19T17:14:11.451Z,3.83
2018-10-19T17:16:41.148Z,2.83
2018-10-19T17:19:10.967Z,2.47
2018-10-19T17:21:40.724Z,2.73
2018-10-19T17:24:10.391Z,2.77
2018-10-19T17:26:40.168Z,2.17
2018-10-19T17:29:09.895Z,2.30
2018-10-19T17:31:39.600Z,2.60
2018-10-19T17:34:09.334Z,2.40
2018-10-19T17:36:39.013Z,3.80
2018-10-19T17:39:10.462Z,3.77
2018-10-19T17:41:40.116Z,3.23
2018-10-19T17:44:09.852Z,3.57
2018-10-19T17:46:39.560Z,3.80
2018-10-19T17:49:09.340Z,3.10
2018-10-19T17:51:38.972Z,2.33
2018-10-19T17:54:08.782Z,3.07
2018-10-19T17:56:38.397Z,2.57
2018-10-19T17:59:08.199Z,2.60
2018-10-19T18:01:37.864Z,2.77
2018-10-19T18:04:07.556Z,2.97
2018-10-19T18:06:37.270Z,2.43
2018-10-19T18:09:10.080Z,2.90
2018-10-19T18:11:39.821Z,3.00
2018-10-19T18:14:09.731Z,2.30
2018-10-19T18:16:39.439Z,2.20
2018-10-19T18:19:09.226Z,1.83
2018-10-19T18:21:39.308Z,2.30
2018-10-19T18:24:08.969Z,2.30
2018-10-19T18:26:38.704Z,2.67
2018-10-19T18:29:08.479Z,2.43
2018-10-19T18:31:38.105Z,2.20
2018-10-19T18:34:07.824Z,2.40
2018-10-19T18:36:37.860Z,2.60
2018-10-19T18:39:10.675Z,2.03
2018-10-19T18:41:40.435Z,2.60
2018-10-19T18:44:10.185Z,2.37
2018-10-19T18:46:39.815Z,2.73
2018-10-19T18:49:09.845Z,2.77
2018-10-19T18:51:39.502Z,11.13
2018-10-19T18:54:09.252Z,7.10
2018-10-19T18:56:38.937Z,7.37
2018-10-19T18:59:08.699Z,5.67
2018-10-19T19:01:38.388Z,6.93
2018-10-19T19:04:08.057Z,7.20
2018-10-19T19:06:37.722Z,7.37
2018-10-19T19:09:10.516Z,6.40
2018-10-19T19:11:41.156Z,5.23
2018-10-19T19:14:10.934Z,4.20
2018-10-19T19:16:40.585Z,6.07
2018-10-19T19:19:10.324Z,4.20
2018-10-19T19:21:40.107Z,5.23
2018-10-19T19:24:15.041Z,11.23
2018-10-19T19:26:44.724Z,11.33
2018-10-19T19:29:14.494Z,7.33
2018-10-19T19:31:44.385Z,5.03
2018-10-19T19:34:18.732Z,3.57
2018-10-19T19:36:48.431Z,4.33
2018-10-19T19:39:18.116Z,3.57
2018-10-19T19:41:52.963Z,3.53
2018-10-19T19:44:22.645Z,3.70
2018-10-19T19:46:52.378Z,3.33
2018-10-19T19:49:39.389Z,3.13
2018-10-19T19:52:09.118Z,3.77
2018-10-19T19:54:38.784Z,4.47
2018-10-19T19:57:08.483Z,6.43
2018-10-19T19:59:38.195Z,7.53
2018-10-19T20:02:07.983Z,9.43
2018-10-19T20:04:38.017Z,13.27
2018-10-19T20:07:07.768Z,8.00
2018-10-19T20:09:37.428Z,6.03
2018-10-19T20:12:07.187Z,5.27
2018-10-19T20:14:36.896Z,5.67
2018-10-19T20:17:06.656Z,6.20
2018-10-19T20:19:36.371Z,8.43
2018-10-19T20:22:06.375Z,3.00
2018-10-19T20:24:36.106Z,3.90
2018-10-19T20:27:05.977Z,2.83
2018-10-19T20:29:35.636Z,2.80
2018-10-19T20:32:05.405Z,2.30
2018-10-19T20:34:35.077Z,3.00
2018-10-19T20:37:04.856Z,2.50
2018-10-19T20:39:34.597Z,3.13
2018-10-19T20:42:04.283Z,3.07
2018-10-19T20:44:33.980Z,5.60
2018-10-19T20:47:03.668Z,5.13
2018-10-19T20:49:33.364Z,5.80
2018-10-19T20:52:03.032Z,7.10
2018-10-19T20:54:32.744Z,5.90
2018-10-19T20:57:02.429Z,5.83
2018-10-19T20:59:32.348Z,4.87
2018-10-19T21:02:02.069Z,4.57
2018-10-19T21:04:31.775Z,6.67
2018-10-19T21:07:01.430Z,4.97
2018-10-19T21:09:31.132Z,6.17
2018-10-19T21:12:00.809Z,5.37
2018-10-19T21:14:30.483Z,3.63
2018-10-19T21:17:00.141Z,2.90
2018-10-19T21:19:29.921Z,2.73
2018-10-19T21:21:59.626Z,3.33
2018-10-19T21:24:29.331Z,3.70
2018-10-19T21:26:58.997Z,3.67
2018-10-19T21:29:28.675Z,3.77
2018-10-19T21:31:58.365Z,3.50
2018-10-19T21:34:28.052Z,3.87
2018-10-19T21:36:57.700Z,5.67
2018-10-19T21:39:27.431Z,7.50
2018-10-19T21:41:57.100Z,3.57
2018-10-19T21:44:26.806Z,4.60
2018-10-19T21:46:56.472Z,3.83
2018-10-19T21:49:26.162Z,3.30
2018-10-19T21:51:55.816Z,2.97
2018-10-19T21:54:25.492Z,3.07
2018-10-19T21:56:55.180Z,2.93
2018-10-19T21:59:24.873Z,2.60
2018-10-19T22:01:54.568Z,2.67
2018-10-19T22:04:24.284Z,2.37
2018-10-19T22:06:53.993Z,2.60
2018-10-19T22:09:23.654Z,2.83
2018-10-19T22:11:53.352Z,2.40
2018-10-19T22:14:23.022Z,2.70
2018-10-19T22:16:52.809Z,3.17
2018-10-19T22:19:22.480Z,2.87
2018-10-19T22:21:52.171Z,2.73
2018-10-19T22:24:21.832Z,2.73
2018-10-19T22:26:51.500Z,2.97
2018-10-19T22:29:21.128Z,2.90
2018-10-19T22:31:50.804Z,2.50
2018-10-19T22:34:20.505Z,2.37
2018-10-19T22:36:50.190Z,2.90
2018-10-19T22:39:19.860Z,2.80
2018-10-19T22:41:49.536Z,2.70
2018-10-19T22:44:19.172Z,2.90
2018-10-19T22:46:48.840Z,2.90
2018-10-19T22:49:18.484Z,2.77
2018-10-19T22:51:48.140Z,2.80
2018-10-19T22:54:17.784Z,2.70
2018-10-19T22:56:47.609Z,2.43
2018-10-19T22:59:17.252Z,2.90
2018-10-19T23:01:47.012Z,2.70
2018-10-19T23:04:16.900Z,2.97
2018-10-19T23:06:46.633Z,3.20
2018-10-19T23:09:16.395Z,3.77
2018-10-19T23:11:46.056Z,3.00
2018-10-19T23:14:15.704Z,3.37
2018-10-19T23:16:45.372Z,3.67
2018-10-19T23:19:15.072Z,2.70
2018-10-19T23:21:44.780Z,2.50
2018-10-19T23:24:14.414Z,2.97
2018-10-19T23:26:44.100Z,2.60
2018-10-19T23:29:13.801Z,2.90
2018-10-19T23:31:43.744Z,2.57
2018-10-19T23:34:13.245Z,3.10
2018-10-19T23:36:42.975Z,2.47
2018-10-19T23:39:13.291Z,2.83
2018-10-19T23:41:42.975Z,2.90
2018-10-19T23:44:12.639Z,3.00
2018-10-19T23:46:42.337Z,3.00
2018-10-19T23:49:12.048Z,2.60
2018-10-19T23:51:41.680Z,3.13
2018-10-19T23:54:11.349Z,2.70
2018-10-19T23:56:41.200Z,3.50
2018-10-19T23:59:10.982Z,3.10
